Terminal Aerodrome Forecast
Issued by NWS North Platte, NE

Home | Current Version | Previous Version | Text Only | Print | Product List | Glossary Off
Versions: 1 2 3 4 5 6 7 8 9 10 11 12 13 14

852
FTUS43 KLBF 272325
TAFVTN
TAF
KVTN 272325Z 2800/2824 34011KT P6SM SKC
     FM280200 VRB05KT P6SM SKC
     FM281500 05008KT P6SM SKC=

USA.gov is the U.S. government's official web portal to all federal, state and local government web resources and services.